createdAt,value
2022-10-11T00:01:34.087Z,14.52
2022-10-11T00:04:03.130Z,17.45
2022-10-11T00:06:32.151Z,13.25
2022-10-11T00:09:13.431Z,15.82
2022-10-11T00:11:56.344Z,21.77
2022-10-11T00:14:37.177Z,12.55
2022-10-11T00:17:18.255Z,15.57
2022-10-11T00:19:59.785Z,13.70
2022-10-11T00:22:42.411Z,15.85
2022-10-11T00:25:22.533Z,14.32
2022-10-11T00:28:03.941Z,19.30
2022-10-11T00:30:45.354Z,21.00
2022-10-11T00:33:27.415Z,19.67
2022-10-11T00:36:09.752Z,15.30
2022-10-11T00:38:51.200Z,13.43
2022-10-11T00:41:32.513Z,14.88
2022-10-11T00:44:15.185Z,20.05
2022-10-11T00:46:59.228Z,18.98
2022-10-11T00:49:44.047Z,13.93
2022-10-11T00:52:29.273Z,15.98
2022-10-11T00:55:15.451Z,17.63
2022-10-11T00:57:58.979Z,12.15
2022-10-11T01:00:40.082Z,13.77
2022-10-11T01:03:23.873Z,12.88
2022-10-11T01:06:05.234Z,14.00
2022-10-11T01:08:46.373Z,16.08
2022-10-11T01:11:30.536Z,16.15
2022-10-11T01:14:36.198Z,13.95
2022-10-11T01:17:27.206Z,14.02
2022-10-11T01:20:35.662Z,16.60
2022-10-11T01:23:45.661Z,13.43
2022-10-11T01:27:11.071Z,16.38
2022-10-11T01:30:04.960Z,12.23
2022-10-11T01:32:51.917Z,14.07
2022-10-11T01:35:39.482Z,15.50
2022-10-11T01:38:28.508Z,12.45
2022-10-11T01:41:13.197Z,12.77
2022-10-11T01:44:00.104Z,11.73
2022-10-11T01:46:40.975Z,12.40
2022-10-11T01:49:22.087Z,11.80
2022-10-11T01:52:06.841Z,13.13
2022-10-11T01:55:09.664Z,12.90
2022-10-11T01:58:04.241Z,11.90
2022-10-11T02:00:52.001Z,11.63
2022-10-11T02:03:40.821Z,12.65
2022-10-11T02:06:30.457Z,9.98
2022-10-11T02:09:16.095Z,14.27
2022-10-11T02:12:01.753Z,12.75
2022-10-11T02:14:57.291Z,10.77
2022-10-11T02:17:41.835Z,14.77
2022-10-11T02:20:25.812Z,12.57
2022-10-11T02:23:11.856Z,13.07
2022-10-11T02:25:55.033Z,13.50
2022-10-11T02:28:39.289Z,10.93
2022-10-11T02:31:21.852Z,8.10
2022-10-11T02:34:10.873Z,9.80
2022-10-11T02:37:00.470Z,10.25
2022-10-11T02:39:44.732Z,9.07
2022-10-11T02:42:32.751Z,7.53
2022-10-11T02:45:18.322Z,13.23
2022-10-11T02:48:00.472Z,14.75
2022-10-11T02:50:41.549Z,12.45
2022-10-11T02:53:23.572Z,8.70
2022-10-11T02:56:04.463Z,11.75
2022-10-11T02:58:45.448Z,10.48
2022-10-11T03:01:26.943Z,11.73
2022-10-11T03:04:08.440Z,9.15
2022-10-11T03:06:49.790Z,8.63
2022-10-11T03:09:31.129Z,12.88
2022-10-11T03:12:12.673Z,10.75
2022-10-11T03:14:54.797Z,9.57
2022-10-11T03:17:36.986Z,12.50
2022-10-11T03:20:18.467Z,10.02
2022-10-11T03:22:59.780Z,12.98
2022-10-11T03:25:41.385Z,11.50
2022-10-11T03:28:22.870Z,11.68
2022-10-11T03:31:04.023Z,13.90
2022-10-11T03:33:45.430Z,13.15
2022-10-11T03:36:26.856Z,10.25
2022-10-11T03:39:08.195Z,14.57
2022-10-11T03:41:49.647Z,14.77
2022-10-11T03:44:31.050Z,8.98
2022-10-11T03:47:12.857Z,13.65
2022-10-11T03:49:54.105Z,13.25
2022-10-11T03:52:35.678Z,10.52
2022-10-11T03:55:16.853Z,15.82
2022-10-11T03:57:58.208Z,10.93
2022-10-11T04:00:40.333Z,13.50
2022-10-11T04:03:21.214Z,13.05
2022-10-11T04:06:02.835Z,9.63
2022-10-11T04:08:43.724Z,17.88
2022-10-11T04:11:25.152Z,14.48
2022-10-11T04:14:06.560Z,10.82
2022-10-11T04:16:47.935Z,10.00
2022-10-11T04:19:29.904Z,7.65
2022-10-11T04:22:10.814Z,10.50
2022-10-11T04:24:52.191Z,10.80
2022-10-11T04:27:33.669Z,10.00
2022-10-11T04:30:16.256Z,14.02
2022-10-11T04:32:56.905Z,12.40
2022-10-11T04:35:37.820Z,10.77
2022-10-11T04:38:19.312Z,12.43
2022-10-11T04:41:09.118Z,11.50
2022-10-11T04:43:50.372Z,11.38
2022-10-11T04:46:31.493Z,8.73
2022-10-11T04:49:12.878Z,12.23
2022-10-11T04:51:54.536Z,14.63
2022-10-11T04:54:35.656Z,9.60
2022-10-11T04:57:17.143Z,16.77
2022-10-11T04:59:58.993Z,11.80
2022-10-11T05:02:39.913Z,13.18
2022-10-11T05:05:21.538Z,9.55
2022-10-11T05:08:02.764Z,11.45
2022-10-11T05:10:44.257Z,7.88
2022-10-11T05:13:25.960Z,10.45
2022-10-11T05:16:10.854Z,14.98
2022-10-11T05:18:51.572Z,10.50
2022-10-11T05:21:35.745Z,10.15
2022-10-11T05:24:18.130Z,15.60
2022-10-11T05:27:03.121Z,9.93
2022-10-11T05:29:43.603Z,12.95
2022-10-11T05:32:27.875Z,12.43
2022-10-11T05:35:10.519Z,10.20
2022-10-11T05:37:51.212Z,13.98
2022-10-11T05:40:33.478Z,7.57
2022-10-11T05:43:13.982Z,15.18
2022-10-11T05:45:55.788Z,11.13
2022-10-11T05:48:36.764Z,8.82
2022-10-11T05:51:18.185Z,12.48
2022-10-11T05:53:59.559Z,12.18
2022-10-11T05:56:40.952Z,13.68
2022-10-11T05:59:22.370Z,10.40
2022-10-11T06:02:04.107Z,10.40
2022-10-11T06:04:45.241Z,10.82
2022-10-11T06:07:26.618Z,10.85
2022-10-11T06:10:09.133Z,5.40
2022-10-11T06:12:55.802Z,9.55
2022-10-11T06:16:00.372Z,10.27
2022-10-11T06:19:12.898Z,15.70
2022-10-11T06:22:13.608Z,8.80
2022-10-11T06:25:20.039Z,11.82
2022-10-11T06:28:20.154Z,8.35
2022-10-11T06:31:14.953Z,12.57
2022-10-11T06:34:14.856Z,13.98
2022-10-11T06:37:27.898Z,9.70
2022-10-11T06:40:28.020Z,9.77
2022-10-11T06:43:22.741Z,12.40
2022-10-11T06:46:17.526Z,10.48
2022-10-11T06:49:12.644Z,10.48
2022-10-11T06:52:25.054Z,12.05
2022-10-11T06:55:23.877Z,8.93
2022-10-11T06:58:21.433Z,11.55
2022-10-11T07:01:20.045Z,12.75
2022-10-11T07:04:16.857Z,8.75
2022-10-11T07:07:14.383Z,13.45
2022-10-11T07:10:10.257Z,13.73
2022-10-11T07:13:16.268Z,8.32
2022-10-11T07:16:16.053Z,10.27
2022-10-11T07:19:16.720Z,11.45
2022-10-11T07:22:26.570Z,7.15
2022-10-11T07:25:25.369Z,16.33
2022-10-11T07:28:20.915Z,12.35
2022-10-11T07:31:19.835Z,13.35
2022-10-11T07:34:13.850Z,17.65
2022-10-11T07:37:13.948Z,15.63
2022-10-11T07:40:11.433Z,10.70
2022-10-11T07:43:06.021Z,9.43
2022-10-11T07:46:04.871Z,17.30
2022-10-11T07:48:59.369Z,11.93
2022-10-11T07:51:57.115Z,15.07
2022-10-11T07:54:54.453Z,10.85
2022-10-11T07:57:48.246Z,11.20
2022-10-11T08:00:43.169Z,11.30
2022-10-11T08:03:42.046Z,9.90
2022-10-11T08:06:43.403Z,14.40
2022-10-11T08:09:56.337Z,9.82
2022-10-11T08:13:01.952Z,14.88
2022-10-11T08:16:10.321Z,8.75
2022-10-11T08:19:11.658Z,12.40
2022-10-11T08:22:06.007Z,13.52
2022-10-11T08:25:04.000Z,11.27
2022-10-11T08:28:05.229Z,9.52
2022-10-11T08:30:59.909Z,7.00
2022-10-11T08:33:57.742Z,11.68
2022-10-11T08:37:11.233Z,13.20
2022-10-11T08:40:07.862Z,12.10
2022-10-11T08:43:19.616Z,10.02
2022-10-11T08:46:22.531Z,15.23
2022-10-11T08:49:28.219Z,16.23
2022-10-11T08:52:02.639Z,15.13
2022-10-11T08:54:38.950Z,16.95
2022-10-11T08:57:12.630Z,10.70
2022-10-11T08:59:46.938Z,10.60
2022-10-11T09:02:55.684Z,16.10
2022-10-11T09:05:26.899Z,11.68
2022-10-11T09:08:02.171Z,14.18
2022-10-11T09:10:54.024Z,12.88
2022-10-11T09:13:42.357Z,15.73
2022-10-11T09:16:20.494Z,7.38
2022-10-11T09:19:13.144Z,16.27
2022-10-11T09:21:52.986Z,14.13
2022-10-11T09:24:34.829Z,13.75
2022-10-11T09:27:11.493Z,10.10
2022-10-11T09:30:01.264Z,8.05
2022-10-11T09:32:33.393Z,11.40
2022-10-11T09:35:12.520Z,8.82
2022-10-11T09:37:50.669Z,12.05
2022-10-11T09:40:32.003Z,14.95
2022-10-11T09:43:00.978Z,15.05
2022-10-11T09:45:30.148Z,13.63
2022-10-11T09:48:03.347Z,13.38
2022-10-11T09:50:33.976Z,14.85
2022-10-11T09:53:07.755Z,12.77
2022-10-11T09:55:40.527Z,14.85
2022-10-11T09:58:28.472Z,13.68
2022-10-11T10:01:08.014Z,9.18
2022-10-11T10:03:39.687Z,12.85
2022-10-11T10:08:40.430Z,8.10
2022-10-11T10:11:10.878Z,16.13
2022-10-11T10:13:45.132Z,9.60
2022-10-11T10:16:24.243Z,19.20
2022-10-11T10:18:55.546Z,9.40
2022-10-11T10:21:31.797Z,9.40
2022-10-11T10:24:05.314Z,11.95
2022-10-11T10:26:35.419Z,9.82
2022-10-11T10:29:16.642Z,12.82
2022-10-11T10:34:53.997Z,8.45
2022-10-11T10:37:28.698Z,8.00
2022-10-11T10:40:04.132Z,11.75
2022-10-11T10:42:33.886Z,6.57
2022-10-11T10:45:04.148Z,8.18
2022-10-11T10:48:01.809Z,7.00
2022-10-11T10:50:47.324Z,10.70
2022-10-11T10:53:26.999Z,10.68
2022-10-11T10:56:05.592Z,5.30
2022-10-11T10:58:51.977Z,6.63
2022-10-11T11:01:26.638Z,7.75
2022-10-11T11:04:05.607Z,10.10
2022-10-11T11:06:41.167Z,6.45
2022-10-11T11:09:31.213Z,11.75
2022-10-11T11:12:13.417Z,9.57
2022-10-11T11:14:50.559Z,6.80
2022-10-11T11:17:28.393Z,15.82
2022-10-11T11:20:10.205Z,12.88
2022-10-11T11:22:48.300Z,8.82
2022-10-11T11:25:28.147Z,10.25
2022-10-11T11:28:19.520Z,11.88
2022-10-11T11:31:00.255Z,15.60
2022-10-11T11:33:41.627Z,7.93
2022-10-11T11:36:16.328Z,9.35
2022-10-11T11:38:49.842Z,9.18
2022-10-11T11:41:22.738Z,7.38
2022-10-11T11:44:04.080Z,6.43
2022-10-11T11:46:36.825Z,12.13
2022-10-11T11:49:14.506Z,9.35
2022-10-11T11:51:46.737Z,7.55
2022-10-11T11:54:28.869Z,9.30
2022-10-11T11:57:08.488Z,8.73
2022-10-11T11:59:45.628Z,7.47
2022-10-11T12:02:40.233Z,7.85
2022-10-11T12:05:10.721Z,9.00
2022-10-11T12:07:54.187Z,9.23
2022-10-11T12:10:30.479Z,8.88
2022-10-11T12:13:08.750Z,9.90
2022-10-11T12:15:39.787Z,7.38
2022-10-11T12:18:16.766Z,10.95
2022-10-11T12:20:46.379Z,13.57
2022-10-11T12:23:45.047Z,14.50
2022-10-11T12:26:33.103Z,9.93
2022-10-11T12:29:47.390Z,12.20
2022-10-11T12:32:52.038Z,11.82
2022-10-11T12:35:52.291Z,12.55
2022-10-11T12:38:23.614Z,9.90
2022-10-11T12:43:33.470Z,13.13
2022-10-11T12:46:39.204Z,12.75
2022-10-11T12:49:27.578Z,11.93
2022-10-11T12:52:01.898Z,10.55
2022-10-11T12:55:14.542Z,10.40
2022-10-11T12:58:04.382Z,9.38
2022-10-11T13:00:35.368Z,12.70
2022-10-11T13:03:07.204Z,10.90
2022-10-11T13:05:45.335Z,10.48
2022-10-11T13:08:27.260Z,11.38
2022-10-11T13:10:58.825Z,11.40
2022-10-11T13:13:32.531Z,14.57
2022-10-11T13:16:07.762Z,17.05
2022-10-11T13:18:37.148Z,11.18
2022-10-11T13:21:21.582Z,11.57
2022-10-11T13:23:57.786Z,13.77
2022-10-11T13:26:27.600Z,11.68
2022-10-11T13:28:57.202Z,8.88
2022-10-11T13:31:26.319Z,13.27
2022-10-11T13:33:57.498Z,13.82
2022-10-11T13:36:28.469Z,10.27
2022-10-11T13:39:00.465Z,12.15
2022-10-11T13:41:31.086Z,12.93
2022-10-11T13:44:01.409Z,10.20
2022-10-11T13:46:31.887Z,14.60
2022-10-11T13:49:02.061Z,11.07
2022-10-11T13:51:34.252Z,11.50
2022-10-11T13:54:08.477Z,15.25
2022-10-11T13:56:45.448Z,11.85
2022-10-11T13:59:19.987Z,11.23
2022-10-11T14:01:49.994Z,14.15
2022-10-11T14:04:19.223Z,11.98
2022-10-11T14:06:59.056Z,9.85
2022-10-11T14:09:32.141Z,15.35
2022-10-11T14:12:29.766Z,11.93
2022-10-11T14:14:59.566Z,12.23
2022-10-11T14:17:40.838Z,7.10
2022-10-11T14:20:18.081Z,10.20
2022-10-11T14:22:47.227Z,13.65
2022-10-11T14:25:17.768Z,12.25
2022-10-11T14:27:46.999Z,13.07
2022-10-11T14:30:27.294Z,12.18
2022-10-11T14:33:00.529Z,9.52
2022-10-11T14:35:32.879Z,10.07
2022-10-11T14:38:01.870Z,9.82
2022-10-11T14:40:32.825Z,10.77
2022-10-11T14:43:01.828Z,14.20
2022-10-11T14:45:30.868Z,9.35
2022-10-11T14:48:00.037Z,10.80
2022-10-11T14:50:40.448Z,15.00
2022-10-11T14:53:11.309Z,10.18
2022-10-11T14:55:43.219Z,16.98
2022-10-11T14:58:15.157Z,15.10
2022-10-11T15:00:45.086Z,11.88
2022-10-11T15:03:14.163Z,14.57
2022-10-11T15:05:43.321Z,12.00
2022-10-11T15:08:15.204Z,11.32
2022-10-11T15:10:45.929Z,12.65
2022-10-11T15:13:15.017Z,13.82
2022-10-11T15:15:43.975Z,14.80
2022-10-11T15:18:16.695Z,17.05
2022-10-11T15:20:48.309Z,16.73
2022-10-11T15:23:18.595Z,13.70
2022-10-11T15:25:49.111Z,15.35
2022-10-11T15:28:25.301Z,12.38
2022-10-11T15:30:55.231Z,15.35
2022-10-11T15:33:25.640Z,13.40
2022-10-11T15:35:54.802Z,19.38
2022-10-11T15:38:26.136Z,14.40
2022-10-11T15:40:56.725Z,15.40
2022-10-11T15:43:27.487Z,16.15
2022-10-11T15:45:57.712Z,13.88
2022-10-11T15:48:27.885Z,18.23
2022-10-11T15:50:56.916Z,16.40
2022-10-11T15:53:28.714Z,15.55
2022-10-11T15:56:00.942Z,17.10
2022-10-11T15:58:32.329Z,13.20
2022-10-11T16:01:05.480Z,19.23
2022-10-11T16:03:35.542Z,19.90
2022-10-11T16:06:05.821Z,19.58
2022-10-11T16:08:35.471Z,14.87
2022-10-11T16:11:07.710Z,19.35
2022-10-11T16:13:37.417Z,19.60
2022-10-11T16:16:09.721Z,13.90
2022-10-11T16:18:39.307Z,16.95
2022-10-11T16:21:10.325Z,19.58
2022-10-11T16:23:39.822Z,15.70
2022-10-11T16:26:14.150Z,17.63
2022-10-11T16:28:43.489Z,17.92
2022-10-11T16:31:16.777Z,19.58
2022-10-11T16:33:48.841Z,22.27
2022-10-11T16:36:40.823Z,18.35
2022-10-11T16:39:14.229Z,20.83
2022-10-11T16:41:45.372Z,16.42
2022-10-11T16:44:15.389Z,18.90
2022-10-11T16:46:48.108Z,11.45
2022-10-11T16:49:18.417Z,19.42
2022-10-11T16:51:47.478Z,21.88
2022-10-11T16:54:20.248Z,23.50
2022-10-11T16:56:51.580Z,19.75
2022-10-11T16:59:20.749Z,17.55
2022-10-11T17:01:50.550Z,16.55
2022-10-11T17:04:19.592Z,15.00
2022-10-11T17:06:48.736Z,16.92
2022-10-11T17:09:18.468Z,21.48
2022-10-11T17:11:47.617Z,18.40
2022-10-11T17:14:18.519Z,25.27
2022-10-11T17:16:47.624Z,17.77
2022-10-11T17:19:17.314Z,18.92
2022-10-11T17:21:46.682Z,22.02
2022-10-11T17:24:15.762Z,16.95
2022-10-11T17:26:45.208Z,20.77
2022-10-11T17:29:15.435Z,17.92
2022-10-11T17:31:49.149Z,19.52
2022-10-11T17:34:19.441Z,23.00
2022-10-11T17:36:49.057Z,23.63
2022-10-11T17:39:19.748Z,18.45
2022-10-11T17:41:49.168Z,23.42
2022-10-11T17:44:18.570Z,33.35
2022-10-11T17:46:49.602Z,24.98
2022-10-11T17:49:18.930Z,26.83
2022-10-11T17:51:47.912Z,22.50
2022-10-11T17:54:16.904Z,23.48
2022-10-11T17:56:45.971Z,19.50
2022-10-11T17:59:22.153Z,23.10
2022-10-11T18:01:52.513Z,24.05
2022-10-11T18:04:22.718Z,17.52
2022-10-11T18:06:51.887Z,19.23
2022-10-11T18:09:21.824Z,17.67
2022-10-11T18:11:50.858Z,16.95
2022-10-11T18:14:20.180Z,29.73
2022-10-11T18:16:49.321Z,17.77
2022-10-11T18:19:19.827Z,21.52
2022-10-11T18:21:48.829Z,21.03
2022-10-11T18:24:18.457Z,30.52
2022-10-11T18:26:48.216Z,24.48
2022-10-11T18:29:17.576Z,24.98
2022-10-11T18:31:46.614Z,25.88
2022-10-11T18:34:16.286Z,25.10
2022-10-11T18:36:48.213Z,27.00
2022-10-11T18:39:17.317Z,24.63
2022-10-11T18:41:46.551Z,30.05
2022-10-11T18:44:17.057Z,22.88
2022-10-11T18:46:46.947Z,31.80
2022-10-11T18:49:15.981Z,25.35
2022-10-11T18:51:48.640Z,20.95
2022-10-11T18:54:21.106Z,27.48
2022-10-11T18:56:50.696Z,19.60
2022-10-11T18:59:20.376Z,17.85
2022-10-11T19:01:52.138Z,22.58
2022-10-11T19:04:21.587Z,25.73
2022-10-11T19:06:53.368Z,26.75
2022-10-11T19:09:24.806Z,32.85
2022-10-11T19:14:25.925Z,19.17
2022-10-11T19:16:56.234Z,18.73
2022-10-11T19:19:27.069Z,16.85
2022-10-11T19:21:58.048Z,18.98
2022-10-11T19:24:28.651Z,26.08
2022-10-11T19:27:02.571Z,18.88
2022-10-11T19:29:34.778Z,18.88
2022-10-11T19:32:04.190Z,15.88
2022-10-11T19:34:33.236Z,24.77
2022-10-11T19:37:04.329Z,22.60
2022-10-11T19:39:33.828Z,24.83
2022-10-11T19:42:04.894Z,15.60
2022-10-11T19:44:38.715Z,18.90
2022-10-11T19:47:10.288Z,18.20
2022-10-11T19:49:39.410Z,14.40
2022-10-11T19:52:09.999Z,15.55
2022-10-11T19:54:39.250Z,20.60
2022-10-11T19:57:09.460Z,21.75
2022-10-11T19:59:38.562Z,24.65
2022-10-11T20:02:07.955Z,17.55
2022-10-11T20:04:53.678Z,16.58
2022-10-11T20:07:24.401Z,21.40
2022-10-11T20:09:53.512Z,33.15
2022-10-11T20:12:22.973Z,37.15
2022-10-11T20:14:52.242Z,42.72
2022-10-11T20:17:21.314Z,33.17
2022-10-11T20:19:50.471Z,35.95
2022-10-11T20:22:19.561Z,21.55
2022-10-11T20:24:49.957Z,24.77
2022-10-11T20:27:19.142Z,18.20
2022-10-11T20:29:48.977Z,17.55
2022-10-11T20:32:18.091Z,22.73
2022-10-11T20:34:47.266Z,18.95
2022-10-11T20:37:16.362Z,19.83
2022-10-11T20:39:45.800Z,23.45
2022-10-11T20:42:17.350Z,21.25
2022-10-11T20:44:48.233Z,19.42
2022-10-11T20:47:17.396Z,19.50
2022-10-11T20:49:46.571Z,17.25
2022-10-11T20:52:15.780Z,20.77
2022-10-11T20:54:44.891Z,20.60
2022-10-11T20:57:13.873Z,16.70
2022-10-11T20:59:44.559Z,19.75
2022-10-11T21:02:18.681Z,18.13
2022-10-11T21:04:48.142Z,16.45
2022-10-11T21:07:17.170Z,10.95
2022-10-11T21:09:46.190Z,19.00
2022-10-11T21:12:15.510Z,17.08
2022-10-11T21:14:46.175Z,25.08
2022-10-11T21:17:15.527Z,17.05
2022-10-11T21:19:44.656Z,19.52
2022-10-11T21:22:13.933Z,17.27
2022-10-11T21:24:42.972Z,21.05
2022-10-11T21:27:11.927Z,15.88
2022-10-11T21:29:40.910Z,13.93
2022-10-11T21:32:14.428Z,18.40
2022-10-11T21:34:43.607Z,15.43
2022-10-11T21:37:13.060Z,19.75
2022-10-11T21:39:42.114Z,16.80
2022-10-11T21:42:11.086Z,17.60
2022-10-11T21:44:43.118Z,20.58
2022-10-11T21:47:13.504Z,18.95
2022-10-11T21:49:42.459Z,20.25
2022-10-11T21:52:11.472Z,18.27
2022-10-11T21:54:40.597Z,22.48
2022-10-11T21:57:09.632Z,18.98
2022-10-11T21:59:38.677Z,13.00
2022-10-11T22:02:07.734Z,17.55
2022-10-11T22:04:38.260Z,14.88
2022-10-11T22:07:07.358Z,20.27
2022-10-11T22:09:36.414Z,19.00
2022-10-11T22:12:05.843Z,15.18
2022-10-11T22:14:34.805Z,15.65
2022-10-11T22:17:04.001Z,13.13
2022-10-11T22:19:32.974Z,17.83
2022-10-11T22:22:03.295Z,17.05
2022-10-11T22:24:32.301Z,12.32
2022-10-11T22:27:01.296Z,15.45
2022-10-11T22:29:34.050Z,17.67
2022-10-11T22:32:03.411Z,19.52
2022-10-11T22:34:33.359Z,15.68
2022-10-11T22:37:03.719Z,21.45
2022-10-11T22:39:32.720Z,10.57
2022-10-11T22:42:01.735Z,14.05
2022-10-11T22:44:30.667Z,14.35
2022-10-11T22:46:59.637Z,21.52
2022-10-11T22:49:28.593Z,16.17
2022-10-11T22:51:57.546Z,14.90
2022-10-11T22:54:27.928Z,17.52
2022-10-11T22:56:56.893Z,13.80
2022-10-11T22:59:25.956Z,15.50
2022-10-11T23:01:54.845Z,13.75
2022-10-11T23:04:23.744Z,23.55
2022-10-11T23:06:52.756Z,17.98
2022-10-11T23:09:21.858Z,16.42
2022-10-11T23:11:52.179Z,23.17
2022-10-11T23:14:21.137Z,20.27
2022-10-11T23:16:52.491Z,19.60
2022-10-11T23:21:50.250Z,15.20
2022-10-11T23:24:19.224Z,20.52
2022-10-11T23:26:48.222Z,19.85
2022-10-11T23:29:18.839Z,12.52
2022-10-11T23:31:47.833Z,17.40
2022-10-11T23:34:16.996Z,12.23
2022-10-11T23:36:45.982Z,15.02
2022-10-11T23:39:16.103Z,14.55
2022-10-11T23:41:45.290Z,17.75
2022-10-11T23:44:14.249Z,19.45
2022-10-11T23:46:44.755Z,12.90
2022-10-11T23:49:13.883Z,16.73
2022-10-11T23:51:42.905Z,18.33
2022-10-11T23:54:12.209Z,10.10
2022-10-11T23:56:41.165Z,16.65
2022-10-11T23:59:10.263Z,15.70
